createdAt,value
2022-12-22T00:00:06.645Z,625.2
2022-12-22T00:01:08.884Z,624.9
2022-12-22T00:02:12.509Z,625.2
2022-12-22T00:03:16.190Z,625.4
2022-12-22T00:04:19.608Z,625.6
2022-12-22T00:05:21.907Z,625.7
2022-12-22T00:06:24.410Z,625.7
2022-12-22T00:07:26.727Z,625.8
2022-12-22T00:08:29.310Z,626
2022-12-22T00:09:31.854Z,626.3
2022-12-22T00:10:34.349Z,626.7
2022-12-22T00:11:36.610Z,627.2
2022-12-22T00:12:39.132Z,627.2
2022-12-22T00:13:41.385Z,627.7
2022-12-22T00:14:43.621Z,627.8
2022-12-22T00:15:46.132Z,627.3
2022-12-22T00:16:48.600Z,627.3
2022-12-22T00:17:51.268Z,627.3
2022-12-22T00:18:53.797Z,627.2
2022-12-22T00:19:56.300Z,626.7
2022-12-22T00:20:58.855Z,626.8
2022-12-22T00:22:01.099Z,626.4
2022-12-22T00:23:03.412Z,626.5
2022-12-22T00:24:05.921Z,626.5
2022-12-22T00:25:08.426Z,626
2022-12-22T00:26:10.398Z,626.4
2022-12-22T00:27:12.352Z,626.4
2022-12-22T00:28:14.879Z,626.6
2022-12-22T00:29:17.459Z,626.4
2022-12-22T00:30:19.707Z,626.8
2022-12-22T00:31:22.448Z,626.8
2022-12-22T00:32:24.722Z,627.2
2022-12-22T00:33:27.229Z,627.2
2022-12-22T00:35:34.728Z,627.4
2022-12-22T00:36:36.951Z,628.1
2022-12-22T00:37:39.165Z,628
2022-12-22T00:38:41.546Z,628.1
2022-12-22T00:39:43.763Z,628.4
2022-12-22T00:40:45.995Z,628.3
2022-12-22T00:41:48.203Z,628.4
2022-12-22T00:42:50.714Z,628.8
2022-12-22T00:43:53.217Z,628.6
2022-12-22T00:44:55.747Z,628.5
2022-12-22T00:45:58.363Z,628.5
2022-12-22T00:47:00.892Z,628.4
2022-12-22T00:48:03.405Z,627.9
2022-12-22T00:49:05.630Z,628.3
2022-12-22T00:50:08.132Z,629
2022-12-22T00:51:10.356Z,628.7
2022-12-22T00:52:12.848Z,628.9
2022-12-22T00:53:15.372Z,628.9
2022-12-22T00:54:18.018Z,629
2022-12-22T00:55:20.263Z,629.1
2022-12-22T00:56:22.484Z,629.1
2022-12-22T00:57:24.979Z,629.6
2022-12-22T00:58:27.227Z,629.5
2022-12-22T00:59:29.776Z,629.4
2022-12-22T01:00:32.313Z,629.2
2022-12-22T01:01:35.476Z,629.1
2022-12-22T01:02:39.476Z,629.3
2022-12-22T01:03:42.625Z,629
2022-12-22T01:04:45.179Z,629.2
2022-12-22T01:05:48.428Z,629.4
2022-12-22T01:06:50.672Z,629.2
2022-12-22T01:07:53.226Z,629.3
2022-12-22T01:08:55.494Z,629.6
2022-12-22T01:09:58.100Z,629.3
2022-12-22T01:11:00.635Z,629.9
2022-12-22T01:12:03.161Z,629.6
2022-12-22T01:13:05.664Z,629.4
2022-12-22T01:14:08.172Z,629.8
2022-12-22T01:15:10.693Z,629.9
2022-12-22T01:16:13.332Z,629.9
2022-12-22T01:17:15.871Z,629.7
2022-12-22T01:18:18.137Z,629.9
2022-12-22T01:19:20.906Z,630
2022-12-22T01:20:23.119Z,629.8
2022-12-22T01:21:25.648Z,629.9
2022-12-22T01:22:27.889Z,629.7
2022-12-22T01:23:30.120Z,629.3
2022-12-22T01:24:32.646Z,629.7
2022-12-22T01:25:34.974Z,629.5
2022-12-22T01:26:37.524Z,629.4
2022-12-22T01:27:39.741Z,629.4
2022-12-22T01:28:41.963Z,629.2
2022-12-22T01:29:44.211Z,629.7
2022-12-22T01:30:47.046Z,629.1
2022-12-22T01:31:49.588Z,628.9
2022-12-22T01:32:51.553Z,629.5
2022-12-22T01:33:54.052Z,629.4
2022-12-22T01:34:56.007Z,629.6
2022-12-22T01:35:58.226Z,629.7
2022-12-22T01:37:00.443Z,629.7
2022-12-22T01:38:02.699Z,629.6
2022-12-22T01:39:04.963Z,629.8
2022-12-22T01:40:07.475Z,630.2
2022-12-22T01:41:10.093Z,630.1
2022-12-22T01:42:12.586Z,629.9
2022-12-22T01:43:15.093Z,629.8
2022-12-22T01:44:17.581Z,630
2022-12-22T01:45:20.103Z,630
2022-12-22T01:46:22.810Z,629.7
2022-12-22T01:47:25.376Z,630.1
2022-12-22T01:48:27.618Z,629.9
2022-12-22T01:49:29.882Z,630.3
2022-12-22T01:50:32.401Z,630.1
2022-12-22T01:51:34.650Z,630.4
2022-12-22T01:52:37.149Z,630.3
2022-12-22T01:53:39.717Z,630.2
2022-12-22T01:54:42.226Z,630.5
2022-12-22T01:55:44.837Z,630.6
2022-12-22T01:56:48.627Z,630.4
2022-12-22T01:57:51.151Z,630.3
2022-12-22T01:58:53.640Z,630.5
2022-12-22T01:59:56.560Z,630.6
2022-12-22T02:00:59.088Z,630.2
2022-12-22T02:02:02.536Z,631
2022-12-22T02:03:05.228Z,630.7
2022-12-22T02:04:07.784Z,631.1
2022-12-22T02:05:10.313Z,631.1
2022-12-22T02:06:12.829Z,630.9
2022-12-22T02:07:15.361Z,631.2
2022-12-22T02:08:17.886Z,631
2022-12-22T02:09:20.108Z,631
2022-12-22T02:10:22.605Z,630.7
2022-12-22T02:11:24.877Z,631
2022-12-22T02:12:27.499Z,631.1
2022-12-22T02:13:29.722Z,631.6
2022-12-22T02:14:32.774Z,631.6
2022-12-22T02:15:35.217Z,631.5
2022-12-22T02:16:38.210Z,632
2022-12-22T02:17:40.180Z,632.2
2022-12-22T02:18:42.716Z,631.8
2022-12-22T02:19:45.283Z,632.2
2022-12-22T02:20:47.845Z,632.4
2022-12-22T02:21:50.347Z,632.1
2022-12-22T02:22:52.574Z,632.1
2022-12-22T02:23:54.796Z,631.8
2022-12-22T02:24:57.031Z,632.1
2022-12-22T02:25:59.523Z,632.2
2022-12-22T02:27:02.047Z,632.4
2022-12-22T02:28:04.707Z,631.9
2022-12-22T02:29:07.219Z,632.2
2022-12-22T02:30:09.758Z,632.3
2022-12-22T02:31:12.397Z,632.2
2022-12-22T02:32:14.648Z,632.5
2022-12-22T02:33:17.145Z,632.3
2022-12-22T02:34:19.680Z,632
2022-12-22T02:35:22.182Z,632.5
2022-12-22T02:36:24.443Z,632
2022-12-22T02:37:27.398Z,632.2
2022-12-22T02:38:29.770Z,632.1
2022-12-22T02:39:32.273Z,632.2
2022-12-22T02:41:39.538Z,632.5
2022-12-22T02:42:42.038Z,632.3
2022-12-22T02:43:44.688Z,632.5
2022-12-22T02:44:47.257Z,632.4
2022-12-22T02:45:49.808Z,632.6
2022-12-22T02:46:52.674Z,633.1
2022-12-22T02:47:54.923Z,632.7
2022-12-22T02:48:56.885Z,632.9
2022-12-22T02:49:59.479Z,633.2
2022-12-22T02:51:02.016Z,633
2022-12-22T02:52:04.579Z,633.3
2022-12-22T02:53:07.087Z,632.9
2022-12-22T02:54:09.603Z,632.9
2022-12-22T02:55:12.126Z,632.8
2022-12-22T02:56:14.820Z,632.7
2022-12-22T02:57:17.189Z,632.8
2022-12-22T02:58:19.704Z,633
2022-12-22T02:59:22.333Z,632.6
2022-12-22T03:00:25.367Z,632.7
2022-12-22T03:01:28.801Z,632.8
2022-12-22T03:02:32.908Z,632.7
2022-12-22T03:03:36.977Z,632.5
2022-12-22T03:04:39.641Z,632.7
2022-12-22T03:05:42.201Z,632.4
2022-12-22T03:06:44.715Z,632.2
2022-12-22T03:07:47.233Z,632.8
2022-12-22T03:08:49.739Z,632.6
2022-12-22T03:09:52.241Z,632.7
2022-12-22T03:10:54.750Z,633
2022-12-22T03:11:56.962Z,632.8
2022-12-22T03:12:59.460Z,632.5
2022-12-22T03:14:01.439Z,632.7
2022-12-22T03:15:04.092Z,632.2
2022-12-22T03:16:06.701Z,632.6
2022-12-22T03:17:08.727Z,632.7
2022-12-22T03:18:10.952Z,632.5
2022-12-22T03:19:13.185Z,632.4
2022-12-22T03:20:15.718Z,632.4
2022-12-22T03:21:17.983Z,632.8
2022-12-22T03:22:20.236Z,633.2
2022-12-22T03:23:22.749Z,633
2022-12-22T03:24:25.270Z,633.1
2022-12-22T03:25:27.494Z,633.1
2022-12-22T03:26:29.759Z,633.4
2022-12-22T03:27:32.289Z,633.6
2022-12-22T03:28:34.797Z,633.3
2022-12-22T03:29:37.358Z,633.7
2022-12-22T03:30:40.012Z,633.8
2022-12-22T03:31:42.849Z,634
2022-12-22T03:32:45.416Z,633.8
2022-12-22T03:33:47.633Z,634.1
2022-12-22T03:34:49.304Z,633.6
2022-12-22T03:35:51.275Z,633.9
2022-12-22T03:36:53.826Z,634.5
2022-12-22T03:37:56.074Z,634.3
2022-12-22T03:38:58.295Z,634.4
2022-12-22T03:40:00.593Z,634.1
2022-12-22T03:41:02.537Z,634.2
2022-12-22T03:42:05.070Z,634.3
2022-12-22T03:43:07.286Z,634.5
2022-12-22T03:44:09.506Z,634.6
2022-12-22T03:45:12.010Z,634.7
2022-12-22T03:46:15.062Z,634.9
2022-12-22T03:47:17.964Z,634.9
2022-12-22T03:48:20.525Z,635.1
2022-12-22T03:49:22.762Z,634.7
2022-12-22T03:50:25.283Z,635.3
2022-12-22T03:51:27.633Z,634.8
2022-12-22T03:52:30.255Z,635.1
2022-12-22T03:53:32.221Z,635.4
2022-12-22T03:54:34.776Z,635.2
2022-12-22T03:55:37.331Z,635.5
2022-12-22T03:56:39.335Z,635.6
2022-12-22T03:57:41.574Z,635.3
2022-12-22T03:58:44.083Z,635
2022-12-22T03:59:46.581Z,635.5
2022-12-22T04:00:49.217Z,635.3
2022-12-22T04:01:52.942Z,634.8
2022-12-22T04:02:56.113Z,635.4
2022-12-22T04:03:58.443Z,635.5
2022-12-22T04:05:00.744Z,635.4
2022-12-22T04:06:02.990Z,635.5
2022-12-22T04:07:05.212Z,635.7
2022-12-22T04:08:07.483Z,635.7
2022-12-22T04:09:10.009Z,636.2
2022-12-22T04:10:11.958Z,636.2
2022-12-22T04:11:14.214Z,636.1
2022-12-22T04:12:16.473Z,636.2
2022-12-22T04:13:18.442Z,636.1
2022-12-22T04:14:20.948Z,636.3
2022-12-22T04:15:23.166Z,636.5
2022-12-22T04:16:25.777Z,636
2022-12-22T04:17:28.438Z,636.5
2022-12-22T04:18:30.955Z,636.3
2022-12-22T04:19:33.536Z,636.7
2022-12-22T04:20:36.039Z,636.6
2022-12-22T04:21:38.530Z,636.7
2022-12-22T04:22:41.033Z,636.6
2022-12-22T04:23:43.562Z,637.1
2022-12-22T04:24:46.123Z,637.5
2022-12-22T04:25:48.639Z,637.3
2022-12-22T04:26:51.209Z,637.5
2022-12-22T04:27:53.770Z,637.6
2022-12-22T04:28:56.714Z,637.2
2022-12-22T04:29:58.680Z,636.9
2022-12-22T04:31:00.640Z,637.1
2022-12-22T04:32:03.525Z,637.5
2022-12-22T04:33:06.174Z,637.3
2022-12-22T04:34:08.424Z,637.1
2022-12-22T04:35:10.955Z,636.7
2022-12-22T04:36:13.443Z,636.5
2022-12-22T04:38:20.868Z,636.7
2022-12-22T04:39:23.515Z,636.7
2022-12-22T04:40:26.104Z,637.1
2022-12-22T04:41:28.623Z,637
2022-12-22T04:42:30.632Z,637.1
2022-12-22T04:43:32.647Z,636.8
2022-12-22T04:44:34.937Z,637.2
2022-12-22T04:45:37.855Z,636.8
2022-12-22T04:46:40.492Z,637
2022-12-22T04:47:42.728Z,637.4
2022-12-22T04:48:45.378Z,637.3
2022-12-22T04:49:47.895Z,637.7
2022-12-22T04:50:50.412Z,637.4
2022-12-22T04:51:52.940Z,637.7
2022-12-22T04:52:55.455Z,637.8
2022-12-22T04:53:57.847Z,637.2
2022-12-22T04:55:00.116Z,637.8
2022-12-22T04:56:02.667Z,637.9
2022-12-22T04:57:05.210Z,637.9
2022-12-22T04:58:07.416Z,637.8
2022-12-22T04:59:09.671Z,637.7
2022-12-22T05:00:12.271Z,637.8
2022-12-22T05:01:15.181Z,638.2
2022-12-22T05:02:18.437Z,637.9
2022-12-22T05:03:21.468Z,637.3
2022-12-22T05:04:25.890Z,637.4
2022-12-22T05:05:28.149Z,637.9
2022-12-22T05:06:30.673Z,637.6
2022-12-22T05:07:32.928Z,636.8
2022-12-22T05:08:35.493Z,637.6
2022-12-22T05:09:37.810Z,637.4
2022-12-22T05:10:40.100Z,637.7
2022-12-22T05:11:42.631Z,637.5
2022-12-22T05:12:45.132Z,637.6
2022-12-22T05:13:48.751Z,637.9
2022-12-22T05:14:51.271Z,638.2
2022-12-22T05:15:53.763Z,638.7
2022-12-22T05:16:56.706Z,638.8
2022-12-22T05:17:58.974Z,639.1
2022-12-22T05:19:01.507Z,639
2022-12-22T05:20:04.183Z,639.4
2022-12-22T05:21:06.751Z,639.1
2022-12-22T05:22:09.298Z,639.2
2022-12-22T05:23:11.821Z,639.7
2022-12-22T05:24:14.070Z,641
2022-12-22T05:25:16.317Z,641
2022-12-22T05:26:18.861Z,640.8
2022-12-22T05:27:21.356Z,640.5
2022-12-22T05:28:23.880Z,641.1
2022-12-22T05:29:26.108Z,641
2022-12-22T05:30:28.865Z,640.5
2022-12-22T05:31:31.716Z,641.2
2022-12-22T05:32:33.947Z,641.1
2022-12-22T05:33:36.490Z,641
2022-12-22T05:34:38.749Z,641.1
2022-12-22T05:35:41.367Z,640.1
2022-12-22T05:36:43.873Z,640.2
2022-12-22T05:37:46.418Z,640.6
2022-12-22T05:38:48.999Z,640.7
2022-12-22T05:39:51.293Z,640.3
2022-12-22T05:41:59.044Z,640.5
2022-12-22T05:43:01.314Z,640.4
2022-12-22T05:44:03.814Z,640.9
2022-12-22T05:45:06.328Z,641.7
2022-12-22T05:46:08.827Z,641.8
2022-12-22T05:47:11.394Z,642
2022-12-22T05:48:13.650Z,642.5
2022-12-22T05:49:15.901Z,642.6
2022-12-22T05:50:18.420Z,642.8
2022-12-22T05:51:20.738Z,642.3
2022-12-22T05:52:23.224Z,642.5
2022-12-22T05:53:25.767Z,642
2022-12-22T05:54:27.989Z,641.6
2022-12-22T05:55:29.647Z,641.7
2022-12-22T05:56:32.208Z,641.7
2022-12-22T05:57:34.764Z,642
2022-12-22T05:58:36.984Z,641.9
2022-12-22T05:59:39.519Z,641.7
2022-12-22T06:00:42.067Z,641.6
2022-12-22T06:01:45.056Z,641.3
2022-12-22T06:02:48.306Z,641.3
2022-12-22T06:04:55.594Z,641.4
2022-12-22T06:05:58.125Z,641.2
2022-12-22T06:07:00.775Z,640.6
2022-12-22T06:08:03.034Z,640.6
2022-12-22T06:09:05.538Z,640.1
2022-12-22T06:11:13.062Z,640.5
2022-12-22T06:12:15.555Z,640.8
2022-12-22T06:13:18.150Z,640.2
2022-12-22T06:14:20.124Z,639.6
2022-12-22T06:15:22.667Z,640.2
2022-12-22T06:16:25.471Z,640.1
2022-12-22T06:17:28.000Z,639.6
2022-12-22T06:18:30.265Z,639.8
2022-12-22T06:19:32.804Z,639.9
2022-12-22T06:20:35.334Z,640
2022-12-22T06:21:37.571Z,639.9
2022-12-22T06:22:40.245Z,640.1
2022-12-22T06:23:42.475Z,640.2
2022-12-22T06:24:44.685Z,640.7
2022-12-22T06:25:46.904Z,641.1
2022-12-22T06:26:49.173Z,641.6
2022-12-22T06:27:51.731Z,642.3
2022-12-22T06:28:54.279Z,642.1
2022-12-22T06:29:56.535Z,641
2022-12-22T06:30:59.380Z,641.3
2022-12-22T06:32:01.392Z,641
2022-12-22T06:33:03.493Z,641
2022-12-22T06:34:05.745Z,640.8
2022-12-22T06:35:08.257Z,640.6
2022-12-22T06:36:10.796Z,639.9
2022-12-22T06:37:13.299Z,639.6
2022-12-22T06:38:15.907Z,639.6
2022-12-22T06:39:18.132Z,639.3
2022-12-22T06:40:20.333Z,639.4
2022-12-22T06:41:22.580Z,639.3
2022-12-22T06:42:24.539Z,639.2
2022-12-22T06:43:27.093Z,638.9
2022-12-22T06:44:29.372Z,638.6
2022-12-22T06:45:31.913Z,639.2
2022-12-22T06:46:35.493Z,638.5
2022-12-22T06:47:37.853Z,638.5
2022-12-22T06:48:40.387Z,638.2
2022-12-22T06:49:42.885Z,638.5
2022-12-22T06:50:45.106Z,638.1
2022-12-22T06:51:47.317Z,638.1
2022-12-22T06:52:49.833Z,638.3
2022-12-22T06:53:52.472Z,638.3
2022-12-22T06:54:54.983Z,637.8
2022-12-22T06:55:57.554Z,637.8
2022-12-22T06:57:00.290Z,638.1
2022-12-22T06:58:02.562Z,638.2
2022-12-22T06:59:04.815Z,637.9
2022-12-22T07:00:07.472Z,638.4
2022-12-22T07:01:09.702Z,638.8
2022-12-22T07:02:12.822Z,638.1
2022-12-22T07:03:16.507Z,637.7
2022-12-22T07:04:18.808Z,638
2022-12-22T07:05:21.082Z,638.3
2022-12-22T07:06:23.326Z,637.7
2022-12-22T07:07:25.840Z,638.3
2022-12-22T07:08:28.384Z,638.5
2022-12-22T07:09:30.790Z,638.3
2022-12-22T07:10:33.023Z,638.3
2022-12-22T07:11:35.537Z,638.5
2022-12-22T07:12:37.497Z,638.3
2022-12-22T07:13:40.026Z,638.8
2022-12-22T07:14:42.547Z,638.8
2022-12-22T07:15:45.234Z,638.5
2022-12-22T07:16:48.439Z,638.3
2022-12-22T07:17:51.041Z,638.7
2022-12-22T07:18:53.548Z,638.9
2022-12-22T07:19:56.080Z,639.3
2022-12-22T07:20:58.667Z,638.7
2022-12-22T07:22:00.906Z,639.2
2022-12-22T07:23:03.320Z,639.1
2022-12-22T07:24:05.836Z,638.8
2022-12-22T07:25:08.477Z,638.8
2022-12-22T07:26:11.077Z,638.8
2022-12-22T07:27:13.367Z,638.9
2022-12-22T07:29:20.571Z,639.3
2022-12-22T07:30:22.809Z,639.4
2022-12-22T07:31:25.952Z,638.8
2022-12-22T07:32:28.555Z,639.3
2022-12-22T07:33:31.098Z,639.5
2022-12-22T07:34:33.832Z,639.3
2022-12-22T07:35:36.355Z,639.6
2022-12-22T07:36:38.319Z,640
2022-12-22T07:37:40.864Z,639.4
2022-12-22T07:38:43.400Z,639.7
2022-12-22T07:39:45.409Z,640.3
2022-12-22T07:41:53.010Z,641
2022-12-22T07:42:55.514Z,640.8
2022-12-22T07:43:58.036Z,641.2
2022-12-22T07:45:00.322Z,641.2
2022-12-22T07:46:02.915Z,641.1
2022-12-22T07:47:05.952Z,641.1
2022-12-22T07:48:08.236Z,641.1
2022-12-22T07:49:10.228Z,640.6
2022-12-22T07:50:12.496Z,640.7
2022-12-22T07:51:15.059Z,641.4
2022-12-22T07:52:17.319Z,641.5
2022-12-22T07:53:19.599Z,640.9
2022-12-22T07:54:22.144Z,641.5
2022-12-22T07:55:24.704Z,641
2022-12-22T07:56:26.944Z,640.8
2022-12-22T07:57:29.269Z,640.4
2022-12-22T07:58:31.496Z,640.3
2022-12-22T07:59:34.013Z,640.3
2022-12-22T08:00:36.298Z,639.9
2022-12-22T08:01:39.299Z,639.7
2022-12-22T08:02:42.672Z,640.2
2022-12-22T08:03:45.491Z,640
2022-12-22T08:04:48.406Z,640
2022-12-22T08:05:50.446Z,640.1
2022-12-22T08:06:52.421Z,640.4
2022-12-22T08:07:54.665Z,639.4
2022-12-22T08:08:56.914Z,639.4
2022-12-22T08:09:59.436Z,639
2022-12-22T08:11:01.980Z,638.9
2022-12-22T08:12:04.209Z,639.1
2022-12-22T08:13:07.226Z,638.5
2022-12-22T08:14:09.815Z,638.5
2022-12-22T08:15:12.100Z,638.5
2022-12-22T08:16:14.797Z,638.6
2022-12-22T08:17:17.367Z,639.3
2022-12-22T08:18:19.659Z,639.7
2022-12-22T08:19:21.330Z,640.2
2022-12-22T08:20:23.347Z,639.7
2022-12-22T08:21:25.630Z,638.9
2022-12-22T08:22:27.620Z,638.9
2022-12-22T08:23:29.621Z,639.1
2022-12-22T08:24:32.198Z,639.7
2022-12-22T08:25:34.711Z,639.2
2022-12-22T08:26:37.267Z,638.9
2022-12-22T08:27:39.820Z,639.3
2022-12-22T08:28:42.463Z,638.7
2022-12-22T08:29:44.268Z,638.9
2022-12-22T08:30:46.251Z,639.2
2022-12-22T08:31:49.487Z,638.8
2022-12-22T08:32:51.828Z,638.7
2022-12-22T08:33:54.093Z,638.6
2022-12-22T08:34:56.588Z,639.2
2022-12-22T08:37:04.125Z,639
2022-12-22T08:38:06.626Z,638.3
2022-12-22T08:39:09.160Z,638.8
2022-12-22T08:40:11.139Z,639.7
2022-12-22T08:41:13.407Z,639.2
2022-12-22T08:42:15.689Z,639.2
2022-12-22T08:43:17.934Z,638.9
2022-12-22T08:44:20.370Z,639.1
2022-12-22T08:45:22.887Z,639
2022-12-22T08:46:25.723Z,639.5
2022-12-22T08:47:29.022Z,639.1
2022-12-22T08:48:31.359Z,639.1
2022-12-22T08:49:33.600Z,638.7
2022-12-22T08:50:36.120Z,639.6
2022-12-22T08:51:38.095Z,639.1
2022-12-22T08:52:40.500Z,639.3
2022-12-22T08:54:48.040Z,640.3
2022-12-22T08:55:50.288Z,639.8
2022-12-22T08:56:51.994Z,640
2022-12-22T08:58:59.217Z,639.8
2022-12-22T09:00:01.941Z,640.2
2022-12-22T09:01:04.614Z,639.2
2022-12-22T09:02:08.235Z,640.4
2022-12-22T09:03:11.966Z,640.1
2022-12-22T09:04:14.033Z,640.5
2022-12-22T09:05:16.616Z,640.8
2022-12-22T09:06:21.486Z,640.8
2022-12-22T09:07:26.196Z,640.5
2022-12-22T09:08:28.523Z,640.2
2022-12-22T09:09:30.775Z,640.2
2022-12-22T09:10:33.306Z,640.1
2022-12-22T09:11:35.822Z,639.6
2022-12-22T09:12:38.087Z,639.9
2022-12-22T09:13:40.598Z,639.6
2022-12-22T09:14:43.151Z,639.3
2022-12-22T09:15:45.807Z,639.5
2022-12-22T09:16:48.976Z,639.5
2022-12-22T09:17:51.587Z,640
2022-12-22T09:18:53.314Z,639.6
2022-12-22T09:19:55.009Z,639.9
2022-12-22T09:20:57.288Z,640
2022-12-22T09:21:59.231Z,640.3
2022-12-22T09:23:01.472Z,640.3
2022-12-22T09:24:03.702Z,641.1
2022-12-22T09:25:05.951Z,640.7
2022-12-22T09:26:08.195Z,641.4
2022-12-22T09:27:10.460Z,641.1
2022-12-22T09:28:12.707Z,641
2022-12-22T09:29:14.656Z,640.5
2022-12-22T09:30:17.167Z,640.8
2022-12-22T09:31:20.171Z,639.9
2022-12-22T09:32:23.099Z,640.5
2022-12-22T09:33:25.321Z,639.6
2022-12-22T09:34:27.872Z,640
2022-12-22T09:35:30.124Z,639.1
2022-12-22T09:36:32.236Z,639.2
2022-12-22T09:37:34.757Z,639.3
2022-12-22T09:38:37.292Z,639.4
2022-12-22T09:39:39.816Z,639.2
2022-12-22T09:40:42.381Z,638.6
2022-12-22T09:41:44.900Z,639.4
2022-12-22T09:42:47.441Z,639.2
2022-12-22T09:43:49.406Z,638.9
2022-12-22T09:44:51.957Z,639.5
2022-12-22T09:45:54.307Z,639.1
2022-12-22T09:46:57.073Z,638.9
2022-12-22T09:47:59.351Z,639.7
2022-12-22T09:49:01.634Z,640.3
2022-12-22T09:50:04.139Z,640.5
2022-12-22T09:51:06.681Z,640.4
2022-12-22T09:52:09.228Z,640.6
2022-12-22T09:53:11.751Z,640.9
2022-12-22T09:54:14.268Z,641.4
2022-12-22T09:55:16.217Z,642.2
2022-12-22T09:56:18.475Z,641.5
2022-12-22T09:57:20.738Z,642.8
2022-12-22T09:59:27.969Z,642.9
2022-12-22T10:00:30.509Z,642.8
2022-12-22T10:01:33.614Z,643.1
2022-12-22T10:02:36.550Z,643.8
2022-12-22T10:03:39.522Z,643.6
2022-12-22T10:04:41.788Z,644.3
2022-12-22T10:05:44.044Z,644.2
2022-12-22T10:06:46.311Z,644
2022-12-22T10:07:48.563Z,644.3
2022-12-22T10:08:50.580Z,644.2
2022-12-22T10:09:54.012Z,644.2
2022-12-22T10:10:56.623Z,643.9
2022-12-22T10:11:58.886Z,643.4
2022-12-22T10:13:01.483Z,643.4
2022-12-22T10:14:03.446Z,643.1
2022-12-22T10:15:05.723Z,643.1
2022-12-22T10:16:07.978Z,642.7
2022-12-22T10:17:10.399Z,642.7
2022-12-22T10:18:13.120Z,642.6
2022-12-22T10:19:18.615Z,643.3
2022-12-22T10:20:20.761Z,644
2022-12-22T10:21:23.276Z,642.9
2022-12-22T10:22:25.542Z,642.9
2022-12-22T10:23:27.564Z,642.8
2022-12-22T10:24:30.161Z,642.9
2022-12-22T10:26:37.158Z,643.7
2022-12-22T10:28:44.463Z,645
2022-12-22T10:29:46.993Z,644.2
2022-12-22T10:30:49.279Z,644.9
2022-12-22T10:31:51.776Z,645.6
2022-12-22T10:32:54.078Z,645.4
2022-12-22T10:33:56.742Z,645.9
2022-12-22T10:34:59.013Z,644.8
2022-12-22T10:36:01.277Z,646.6
2022-12-22T10:37:03.829Z,647.5
2022-12-22T10:39:11.115Z,644.8
2022-12-22T10:40:14.095Z,645.4
2022-12-22T10:41:16.470Z,645.5
2022-12-22T10:42:18.747Z,644.8
2022-12-22T10:43:21.279Z,644.5
2022-12-22T10:44:23.308Z,645.1
2022-12-22T10:45:25.823Z,645.5
2022-12-22T10:46:28.801Z,644.8
2022-12-22T10:47:31.365Z,644.4
2022-12-22T10:48:33.899Z,643.8
2022-12-22T10:50:37.881Z,645.8
2022-12-22T10:51:40.393Z,645.1
2022-12-22T10:52:42.918Z,644.9
2022-12-22T10:53:45.160Z,644.8
2022-12-22T10:54:47.488Z,644.2
2022-12-22T10:55:50.041Z,644.5
2022-12-22T10:56:51.996Z,645.7
2022-12-22T10:57:54.219Z,644.4
2022-12-22T10:58:56.447Z,645.5
2022-12-22T10:59:58.761Z,644.2
2022-12-22T11:01:01.281Z,644.3
2022-12-22T11:02:04.857Z,643.8
2022-12-22T11:03:08.232Z,643.3
2022-12-22T11:04:11.314Z,643.7
2022-12-22T11:05:13.336Z,644.4
2022-12-22T11:06:15.695Z,643.6
2022-12-22T11:07:18.218Z,642.7
2022-12-22T11:08:20.508Z,643.6
2022-12-22T11:10:28.076Z,643.2
2022-12-22T11:11:30.040Z,642.8
2022-12-22T11:12:32.289Z,643.6
2022-12-22T11:13:34.532Z,642.4
2022-12-22T11:14:37.041Z,643.2
2022-12-22T11:15:39.311Z,642.6
2022-12-22T11:16:41.820Z,643.5
2022-12-22T11:17:44.345Z,643.2
2022-12-22T11:18:46.847Z,643.4
2022-12-22T11:19:49.119Z,642.8
2022-12-22T11:20:51.655Z,643.1
2022-12-22T11:21:54.287Z,643.9
2022-12-22T11:22:56.720Z,643.5
2022-12-22T11:23:58.946Z,643.3
2022-12-22T11:25:01.463Z,644.2
2022-12-22T11:26:03.487Z,643.8
2022-12-22T11:27:05.433Z,642.8
2022-12-22T11:28:07.424Z,643.3
2022-12-22T11:29:09.949Z,643.9
2022-12-22T11:30:12.228Z,643.3
2022-12-22T11:31:15.299Z,642.2
2022-12-22T11:32:17.572Z,641.9
2022-12-22T11:33:19.499Z,643.1
2022-12-22T11:34:23.368Z,643.1
2022-12-22T11:35:25.641Z,643.3
2022-12-22T11:36:27.877Z,642.7
2022-12-22T11:37:30.481Z,643.4
2022-12-22T11:38:34.169Z,643.7
2022-12-22T11:39:36.687Z,644.1
2022-12-22T11:40:38.932Z,644.3
2022-12-22T11:41:41.493Z,644.4
2022-12-22T11:42:44.010Z,644
2022-12-22T11:43:46.548Z,644
2022-12-22T11:44:48.533Z,643.7
2022-12-22T11:45:51.162Z,645.6
2022-12-22T11:46:54.328Z,644.3
2022-12-22T11:47:56.877Z,645.3
2022-12-22T11:48:59.395Z,645.1
2022-12-22T11:52:13.498Z,646.4
2022-12-22T11:53:16.781Z,646.7
2022-12-22T11:54:19.385Z,646.3
2022-12-22T11:55:21.397Z,647.7
2022-12-22T11:56:24.047Z,646.9
2022-12-22T11:57:26.617Z,646.6
2022-12-22T11:58:29.091Z,648
2022-12-22T11:59:31.401Z,648.3
2022-12-22T12:01:39.283Z,648.4
2022-12-22T12:02:42.099Z,648.6
2022-12-22T12:03:44.684Z,649
2022-12-22T12:04:46.681Z,650.1
2022-12-22T12:05:49.199Z,649.5
2022-12-22T12:06:51.471Z,649.5
2022-12-22T12:07:53.736Z,649.4
2022-12-22T12:08:56.368Z,648.7
2022-12-22T12:09:58.891Z,649.2
2022-12-22T12:11:01.122Z,648.5
2022-12-22T12:12:03.112Z,648.2
2022-12-22T12:13:05.383Z,649
2022-12-22T12:14:07.633Z,648
2022-12-22T12:15:09.884Z,648.2
2022-12-22T12:16:12.850Z,646.9
2022-12-22T12:17:15.376Z,647.8
2022-12-22T12:18:17.624Z,648.8
2022-12-22T12:20:25.190Z,648.5
2022-12-22T12:21:28.712Z,648.1
2022-12-22T12:22:30.984Z,648.2
2022-12-22T12:23:33.292Z,648
2022-12-22T12:24:35.680Z,648.8
2022-12-22T12:25:38.190Z,647
2022-12-22T12:26:40.446Z,648.2
2022-12-22T12:27:42.973Z,649
2022-12-22T12:28:45.283Z,649.1
2022-12-22T12:30:52.953Z,648.9
2022-12-22T12:31:55.947Z,648.8
2022-12-22T12:32:58.232Z,649.2
2022-12-22T12:34:00.520Z,649.1
2022-12-22T12:35:03.038Z,649.9
2022-12-22T12:36:05.595Z,649.4
2022-12-22T12:37:07.864Z,649.3
2022-12-22T12:39:15.669Z,649
2022-12-22T12:40:17.984Z,649.7
2022-12-22T12:41:20.539Z,649.4
2022-12-22T12:42:23.182Z,650.7
2022-12-22T12:43:25.707Z,649.4
2022-12-22T12:44:28.325Z,650.3
2022-12-22T12:45:30.573Z,649.4
2022-12-22T12:46:33.041Z,649.6
2022-12-22T12:47:35.606Z,650.1
2022-12-22T12:49:44.603Z,649.4
2022-12-22T12:50:46.884Z,650.4
2022-12-22T12:51:49.173Z,649
2022-12-22T12:52:50.907Z,650.4
2022-12-22T12:53:53.443Z,650.4
2022-12-22T12:54:55.674Z,651.1
2022-12-22T12:55:58.374Z,648.9
2022-12-22T12:57:00.669Z,649.7
2022-12-22T12:58:03.249Z,649.4
2022-12-22T12:59:05.840Z,648.6
2022-12-22T13:00:07.975Z,648.5
2022-12-22T13:01:10.569Z,648.7
2022-12-22T13:02:14.208Z,648.7
2022-12-22T13:04:22.264Z,648.4
2022-12-22T13:05:24.809Z,647.1
2022-12-22T13:06:27.203Z,647.1
2022-12-22T13:07:29.760Z,648.2
2022-12-22T13:08:31.772Z,647.9
2022-12-22T13:10:39.006Z,648
2022-12-22T13:12:46.629Z,648.5
2022-12-22T13:13:49.209Z,647.2
2022-12-22T13:14:51.217Z,647.9
2022-12-22T13:15:53.621Z,647.9
2022-12-22T13:16:56.161Z,647.8
2022-12-22T13:17:59.203Z,646.8
2022-12-22T13:19:02.123Z,646.7
2022-12-22T13:20:05.302Z,647.5
2022-12-22T13:22:12.788Z,647.8
2022-12-22T13:23:14.789Z,646.7
2022-12-22T13:25:22.372Z,647.4
2022-12-22T13:26:25.002Z,647
2022-12-22T13:27:27.234Z,647.2
2022-12-22T13:28:31.126Z,646.7
2022-12-22T13:29:33.395Z,646.9
2022-12-22T13:30:35.941Z,646.9
2022-12-22T13:31:38.418Z,647.4
2022-12-22T13:32:40.389Z,647.6
2022-12-22T13:33:42.923Z,646.8
2022-12-22T13:36:55.119Z,645.8
2022-12-22T13:37:57.367Z,646.8
2022-12-22T13:38:59.636Z,646.4
2022-12-22T13:40:02.208Z,646.4
2022-12-22T13:41:04.857Z,646.3
2022-12-22T13:42:07.827Z,646.6
2022-12-22T13:43:10.377Z,647.8
2022-12-22T13:44:12.771Z,646.8
2022-12-22T13:45:14.764Z,647.7
2022-12-22T13:46:17.644Z,648
2022-12-22T13:47:20.738Z,648.6
2022-12-22T13:48:23.117Z,647.9
2022-12-22T13:50:30.371Z,648
2022-12-22T13:51:32.636Z,648.2
2022-12-22T13:52:34.862Z,648.2
2022-12-22T13:54:41.808Z,648.1
2022-12-22T13:55:44.099Z,647.1
2022-12-22T13:56:46.725Z,647.5
2022-12-22T13:58:57.473Z,648.4
2022-12-22T14:00:00.140Z,646.7
2022-12-22T14:01:02.945Z,646.6
2022-12-22T14:02:06.166Z,645.9
2022-12-22T14:04:14.933Z,645.9
2022-12-22T14:05:17.364Z,645.9
2022-12-22T14:06:19.313Z,644.5
2022-12-22T14:07:21.364Z,645.2